Time;durP1;ratioP1;P1;durP2;ratioP2;P2;SDS_P1;SDS_P2;PMS_P1;PMS_P2;Temp;Humidity;BMP_temperature;BMP_pressure;BME280_temperature;BME280_humidity;BME280_pressure;Samples;Min_cycle;Max_cycle;Signal;HPM_P1;HPM_P2
2022/05/30 00:00:29;;;;;;;7.15;4.60;;;;;;;;;;4505827;77;28505;-88
2022/05/30 00:06:32;;;;;;;8.13;4.78;;;;;;;;;;4541090;77;28530;-87
2022/05/30 00:12:33;;;;;;;7.10;4.80;;;;;;;;;;4509858;77;28573;-88
2022/05/30 00:18:34;;;;;;;7.75;4.80;;;;;;;;;;4525737;77;28470;-86
2022/05/30 00:24:35;;;;;;;8.15;4.60;;;;;;;;;;4489793;77;28543;-86
2022/05/30 00:30:36;;;;;;;10.55;5.17;;;;;;;;;;4507650;77;28504;-86
2022/05/30 00:36:37;;;;;;;8.63;5.33;;;;;;;;;;4489619;77;28517;-83
2022/05/30 00:42:38;;;;;;;12.03;6.60;;;;;;;;;;4511205;77;28455;-83
2022/05/30 00:48:41;;;;;;;11.95;6.33;;;;;;;;;;4515403;77;28508;-83
2022/05/30 00:54:44;;;;;;;8.50;5.53;;;;;;;;;;4526822;77;28479;-83
2022/05/30 01:00:45;;;;;;;8.68;5.65;;;;;;;;;;4514266;77;28486;-83
2022/05/30 01:06:47;;;;;;;10.18;5.62;;;;;;;;;;4515796;77;28453;-83
2022/05/30 01:12:53;;;;;;;11.50;6.72;;;;;;;;;;4526658;77;28565;-84
2022/05/30 01:18:55;;;;;;;10.97;7.07;;;;;;;;;;4527001;77;28498;-85
2022/05/30 01:25:12;;;;;;;11.57;7.37;;;;;;;;;;4492895;77;28495;-84
2022/05/30 01:31:15;;;;;;;11.55;6.95;;;;;;;;;;4496080;77;28465;-85
2022/05/30 01:37:16;;;;;;;12.25;7.10;;;;;;;;;;4497035;77;28453;-85
2022/05/30 01:43:17;;;;;;;10.63;6.78;;;;;;;;;;4537115;77;28486;-85
2022/05/30 01:49:20;;;;;;;10.78;6.60;;;;;;;;;;4532772;77;28539;-85
2022/05/30 01:55:21;;;;;;;11.20;6.90;;;;;;;;;;4520989;77;28508;-86
2022/05/30 02:01:33;;;;;;;11.65;7.53;;;;;;;;;;4525242;77;28615;-85
2022/05/30 02:07:35;;;;;;;10.93;7.22;;;;;;;;;;4547761;77;28535;-85
2022/05/30 02:13:37;;;;;;;10.45;6.55;;;;;;;;;;4455514;77;28552;-85
2022/05/30 02:19:41;;;;;;;11.43;7.03;;;;;;;;;;4508923;77;28514;-86
2022/05/30 02:25:44;;;;;;;11.12;7.45;;;;;;;;;;4510184;77;28463;-86
2022/05/30 02:31:45;;;;;;;13.32;8.18;;;;;;;;;;4525141;77;28439;-86
2022/05/30 02:37:46;;;;;;;14.43;8.85;;;;;;;;;;4523587;77;28462;-86
2022/05/30 02:44:08;;;;;;;13.00;7.97;;;;;;;;;;4497646;77;28611;-86
2022/05/30 02:50:10;;;;;;;14.95;8.50;;;;;;;;;;4515261;77;28506;-86
2022/05/30 02:56:12;;;;;;;12.18;7.83;;;;;;;;;;4501480;77;28496;-88
2022/05/30 03:02:13;;;;;;;12.80;8.00;;;;;;;;;;4523786;77;28611;-85
2022/05/30 03:08:14;;;;;;;13.72;8.33;;;;;;;;;;4512988;77;28531;-85
2022/05/30 03:14:34;;;;;;;13.58;8.20;;;;;;;;;;4512811;77;28558;-85
2022/05/30 03:20:35;;;;;;;12.75;7.42;;;;;;;;;;4494058;77;28519;-85
2022/05/30 03:26:37;;;;;;;14.03;7.45;;;;;;;;;;4521019;77;28495;-84
2022/05/30 03:32:38;;;;;;;33.67;7.62;;;;;;;;;;4491334;77;28510;-83
2022/05/30 03:38:39;;;;;;;11.85;7.08;;;;;;;;;;4505577;77;28496;-83
2022/05/30 03:44:45;;;;;;;10.77;7.00;;;;;;;;;;4527367;77;29028;-82
2022/05/30 03:50:47;;;;;;;13.53;8.30;;;;;;;;;;4528142;77;28467;-83
2022/05/30 03:56:48;;;;;;;12.45;7.75;;;;;;;;;;4522016;77;28502;-84
2022/05/30 04:02:49;;;;;;;10.70;6.92;;;;;;;;;;4508212;77;28579;-79
2022/05/30 04:08:51;;;;;;;12.40;7.70;;;;;;;;;;4521937;77;28531;-80
2022/05/30 04:15:13;;;;;;;12.70;7.90;;;;;;;;;;4522494;77;28526;-80
2022/05/30 04:21:14;;;;;;;11.60;8.53;;;;;;;;;;4525350;77;28475;-80
2022/05/30 04:27:15;;;;;;;12.05;7.40;;;;;;;;;;4523653;77;28498;-80
2022/05/30 04:33:16;;;;;;;11.10;6.97;;;;;;;;;;4478069;77;28518;-81
2022/05/30 04:39:17;;;;;;;9.68;6.72;;;;;;;;;;4511981;77;28717;-81
2022/05/30 04:45:27;;;;;;;11.97;7.00;;;;;;;;;;4486236;77;28558;-81
2022/05/30 04:51:39;;;;;;;13.35;7.62;;;;;;;;;;4516233;77;28471;-80
2022/05/30 04:57:42;;;;;;;9.68;6.70;;;;;;;;;;4483007;77;28497;-80
2022/05/30 05:03:45;;;;;;;10.48;6.60;;;;;;;;;;4517763;77;28517;-82
2022/05/30 05:09:54;;;;;;;13.48;6.97;;;;;;;;;;4512642;77;28475;-82
2022/05/30 05:16:03;;;;;;;13.22;7.87;;;;;;;;;;4478219;77;28556;-82
2022/05/30 05:22:06;;;;;;;13.48;8.55;;;;;;;;;;4505238;77;28469;-84
2022/05/30 05:28:08;;;;;;;13.80;7.85;;;;;;;;;;4517015;77;28498;-82
2022/05/30 05:34:11;;;;;;;13.72;6.97;;;;;;;;;;4515451;77;28474;-80
2022/05/30 05:40:12;;;;;;;9.88;6.97;;;;;;;;;;4509266;77;28534;-78
2022/05/30 05:46:18;;;;;;;12.33;6.83;;;;;;;;;;4495029;78;28530;-77
2022/05/30 05:52:20;;;;;;;11.12;7.78;;;;;;;;;;4526677;77;28564;-77
2022/05/30 05:58:21;;;;;;;12.93;7.60;;;;;;;;;;4496128;77;28536;-76
2022/05/30 06:04:22;;;;;;;12.95;7.62;;;;;;;;;;4527204;77;28543;-76
2022/05/30 06:10:33;;;;;;;14.65;7.35;;;;;;;;;;4526408;77;28513;-76
2022/05/30 06:16:37;;;;;;;16.42;8.33;;;;;;;;;;4522543;77;28534;-76
2022/05/30 06:22:39;;;;;;;15.93;9.38;;;;;;;;;;4487530;77;28498;-77
2022/05/30 06:28:41;;;;;;;17.35;8.80;;;;;;;;;;4500185;77;28501;-76
2022/05/30 06:34:47;;;;;;;17.17;8.73;;;;;;;;;;4495108;77;28523;-77
2022/05/30 06:40:48;;;;;;;13.72;8.63;;;;;;;;;;4533201;77;28458;-77
2022/05/30 06:46:53;;;;;;;18.57;9.33;;;;;;;;;;4506957;78;28478;-77
2022/05/30 06:53:12;;;;;;;15.05;9.33;;;;;;;;;;4528919;77;28527;-78
2022/05/30 06:59:13;;;;;;;17.50;9.65;;;;;;;;;;4524437;76;28551;-78
2022/05/30 07:05:14;;;;;;;15.13;9.93;;;;;;;;;;4560221;77;28455;-76
2022/05/30 07:11:30;;;;;;;15.83;9.48;;;;;;;;;;4484090;77;28577;-77
2022/05/30 07:17:31;;;;;;;12.93;7.97;;;;;;;;;;4524088;77;28452;-77
2022/05/30 07:23:33;;;;;;;12.07;7.22;;;;;;;;;;4510942;77;28460;-77
2022/05/30 07:29:53;;;;;;;11.43;7.95;;;;;;;;;;4479384;78;28536;-78
2022/05/30 07:36:14;;;;;;;10.78;7.20;;;;;;;;;;4532901;77;28515;-78
2022/05/30 07:42:17;;;;;;;8.70;5.95;;;;;;;;;;4525599;77;28490;-78
2022/05/30 07:48:22;;;;;;;8.75;6.20;;;;;;;;;;4515599;77;28467;-79
2022/05/30 07:54:37;;;;;;;6.35;5.00;;;;;;;;;;4537220;77;28544;-77
2022/05/30 08:00:40;;;;;;;7.12;4.15;;;;;;;;;;4507406;77;28534;-77
2022/05/30 08:06:42;;;;;;;6.50;3.70;;;;;;;;;;4511971;77;28448;-77
2022/05/30 08:13:01;;;;;;;5.85;3.75;;;;;;;;;;4474621;77;28457;-77
2022/05/30 08:19:07;;;;;;;5.93;4.50;;;;;;;;;;4503529;77;28555;-77
2022/05/30 08:25:10;;;;;;;6.78;4.10;;;;;;;;;;4547342;77;28476;-78
2022/05/30 08:31:12;;;;;;;6.35;3.65;;;;;;;;;;4563172;77;28448;-77
2022/05/30 08:37:21;;;;;;;6.55;3.90;;;;;;;;;;4545523;77;28502;-77
2022/05/30 08:43:25;;;;;;;6.80;4.55;;;;;;;;;;4533049;77;28464;-77
2022/05/30 08:49:30;;;;;;;6.58;4.40;;;;;;;;;;4548840;77;28471;-78
2022/05/30 08:55:36;;;;;;;5.80;3.70;;;;;;;;;;4550585;77;28485;-77
2022/05/30 09:01:50;;;;;;;3.87;2.60;;;;;;;;;;4531177;77;28490;-77
2022/05/30 09:08:12;;;;;;;3.70;2.52;;;;;;;;;;4551615;77;28540;-77
2022/05/30 09:14:17;;;;;;;3.40;2.60;;;;;;;;;;4502580;77;28491;-78
2022/05/30 09:20:20;;;;;;;3.20;2.67;;;;;;;;;;4504627;77;28534;-78
2022/05/30 09:26:23;;;;;;;3.40;2.77;;;;;;;;;;4500919;78;28564;-78
2022/05/30 09:32:28;;;;;;;4.47;2.60;;;;;;;;;;4499881;78;28515;-78
2022/05/30 09:38:48;;;;;;;3.67;2.40;;;;;;;;;;4501131;78;28547;-78
2022/05/30 09:44:58;;;;;;;2.20;2.00;;;;;;;;;;4499352;77;28565;-77
2022/05/30 09:51:15;;;;;;;3.15;2.40;;;;;;;;;;4466841;77;28502;-78
2022/05/30 09:57:19;;;;;;;3.05;2.17;;;;;;;;;;4523440;77;28494;-77
2022/05/30 10:03:41;;;;;;;3.47;2.20;;;;;;;;;;4481567;77;28585;-77
2022/05/30 10:09:58;;;;;;;5.05;2.47;;;;;;;;;;4502808;78;28515;-77
2022/05/30 10:16:01;;;;;;;3.80;2.27;;;;;;;;;;4499666;78;28543;-77
2022/05/30 10:28:35;;;;;;;3.25;2.47;;;;;;;;;;4498752;77;28570;-78
2022/05/30 10:34:42;;;;;;;4.28;2.52;;;;;;;;;;4501575;78;28983;-77
2022/05/30 10:40:52;;;;;;;3.00;2.20;;;;;;;;;;4480760;78;28488;-77
2022/05/30 10:47:04;;;;;;;2.80;1.95;;;;;;;;;;4500585;77;28596;-77
2022/05/30 10:53:08;;;;;;;3.70;1.98;;;;;;;;;;4519580;77;28489;-77
2022/05/30 10:59:18;;;;;;;2.98;1.82;;;;;;;;;;4458813;77;28518;-78
2022/05/30 11:05:21;;;;;;;;;;;;;;;;;;4499977;77;28562;-78
2022/05/30 11:11:30;;;;;;;2.92;1.20;;;;;;;;;;4489049;78;20294;-78
2022/05/30 11:17:41;;;;;;;3.05;1.30;;;;;;;;;;4497252;77;28498;-78
2022/05/30 11:23:53;;;;;;;4.05;1.50;;;;;;;;;;4483811;79;28519;-78
2022/05/30 11:29:56;;;;;;;4.22;1.75;;;;;;;;;;4497337;78;28522;-76
2022/05/30 11:36:14;;;;;;;3.58;2.00;;;;;;;;;;4495538;78;28525;-76
2022/05/30 11:42:32;;;;;;;3.12;2.30;;;;;;;;;;4499629;79;28479;-75
2022/05/30 11:48:43;;;;;;;3.55;2.70;;;;;;;;;;4487086;77;28490;-77
2022/05/30 11:55:03;;;;;;;3.12;2.58;;;;;;;;;;4481050;79;28494;-77
2022/05/30 12:01:05;;;;;;;4.62;2.60;;;;;;;;;;4484046;78;28488;-78
2022/05/30 12:07:53;;;;;;;3.40;2.55;;;;;;;;;;4593608;75;76939;-76
2022/05/30 12:13:58;;;;;;;3.67;2.50;;;;;;;;;;4562970;76;28480;-76
2022/05/30 12:26:56;;;;;;;4.42;2.85;;;;;;;;;;4512116;76;28479;-77
2022/05/30 12:32:57;;;;;;;3.15;2.30;;;;;;;;;;4547338;76;28443;-77
2022/05/30 12:39:01;;;;;;;2.83;2.50;;;;;;;;;;4543253;76;28525;-77
2022/05/30 12:45:40;;;;;;;4.28;2.40;;;;;;;;;;4570968;76;28456;-77
2022/05/30 12:52:01;;;;;;;4.20;3.08;;;;;;;;;;4571975;76;28500;-77
2022/05/30 12:58:02;;;;;;;4.90;3.08;;;;;;;;;;4566081;76;28512;-77
2022/05/30 13:04:10;;;;;;;3.80;2.40;;;;;;;;;;4571246;76;28557;-78
2022/05/30 13:10:11;;;;;;;3.20;2.40;;;;;;;;;;4556258;76;28484;-77
2022/05/30 13:16:28;;;;;;;4.67;2.50;;;;;;;;;;4563920;76;28533;-77
2022/05/30 13:22:42;;;;;;;4.53;2.70;;;;;;;;;;4564859;76;28532;-77
2022/05/30 13:28:45;;;;;;;3.45;2.75;;;;;;;;;;4568571;76;28568;-77
2022/05/30 13:34:56;;;;;;;2.47;2.27;;;;;;;;;;4584353;76;28443;-76
2022/05/30 13:40:57;;;;;;;4.95;3.42;;;;;;;;;;4453360;78;28485;-77
2022/05/30 13:47:05;;;;;;;4.87;2.60;;;;;;;;;;4438999;78;28429;-76
2022/05/30 13:53:07;;;;;;;5.17;2.40;;;;;;;;;;4432555;78;28509;-77
2022/05/30 13:59:33;;;;;;;2.77;2.17;;;;;;;;;;4437648;79;28535;-77
2022/05/30 14:05:38;;;;;;;;;;;;;;;;;;4296638;81;28559;-78
2022/05/30 14:11:43;;;;;;;4.12;2.45;;;;;;;;;;4428080;79;20226;-77
2022/05/30 14:17:50;;;;;;;5.25;2.80;;;;;;;;;;4411933;80;28480;-77
2022/05/30 14:23:54;;;;;;;3.85;2.75;;;;;;;;;;4442641;79;28532;-85
2022/05/30 14:30:06;;;;;;;4.47;2.60;;;;;;;;;;4445138;79;28553;-82
2022/05/30 14:36:38;;;;;;;5.83;2.42;;;;;;;;;;4420616;80;28537;-83
2022/05/30 14:42:49;;;;;;;3.65;2.33;;;;;;;;;;4441762;79;28460;-83
2022/05/30 14:48:52;;;;;;;3.35;2.33;;;;;;;;;;4424643;79;28480;-82
2022/05/30 14:54:53;;;;;;;3.17;2.20;;;;;;;;;;4443129;80;28522;-84
2022/05/30 15:00:58;;;;;;;4.42;2.50;;;;;;;;;;4464611;79;28488;-80
2022/05/30 15:07:09;;;;;;;4.70;2.30;;;;;;;;;;4532804;77;28518;-81
2022/05/30 15:13:10;;;;;;;3.42;2.15;;;;;;;;;;4529559;77;28519;-80
2022/05/30 15:19:11;;;;;;;2.92;2.08;;;;;;;;;;4558772;77;28585;-82
2022/05/30 15:25:12;;;;;;;4.40;2.25;;;;;;;;;;4551889;77;28511;-83
2022/05/30 15:31:18;;;;;;;3.40;2.05;;;;;;;;;;4541140;77;28514;-81
2022/05/30 15:37:20;;;;;;;3.73;2.40;;;;;;;;;;4545751;77;28502;-80
2022/05/30 15:43:22;;;;;;;3.00;2.12;;;;;;;;;;4550837;77;28525;-80
2022/05/30 15:49:28;;;;;;;4.10;2.00;;;;;;;;;;4549669;77;28544;-80
2022/05/30 16:01:50;;;;;;;3.77;2.27;;;;;;;;;;4524356;77;28546;-83
2022/05/30 16:07:52;;;;;;;3.87;2.00;;;;;;;;;;4527225;77;28521;-83
2022/05/30 16:13:53;;;;;;;2.65;2.20;;;;;;;;;;4557919;77;28539;-83
2022/05/30 16:19:54;;;;;;;6.00;2.65;;;;;;;;;;4555528;77;28571;-86
2022/05/30 16:26:03;;;;;;;3.65;2.72;;;;;;;;;;4534564;77;28607;-85
2022/05/30 16:32:05;;;;;;;2.95;2.05;;;;;;;;;;4538744;77;28476;-83
2022/05/30 16:38:06;;;;;;;4.35;2.25;;;;;;;;;;4557517;77;28510;-84
2022/05/30 16:44:14;;;;;;;3.22;2.25;;;;;;;;;;4547175;77;28511;-84
2022/05/30 16:50:19;;;;;;;2.45;2.08;;;;;;;;;;4579239;77;28506;-84
2022/05/30 16:56:20;;;;;;;4.12;2.20;;;;;;;;;;4545196;77;28527;-83
2022/05/30 17:02:21;;;;;;;3.15;2.00;;;;;;;;;;4537279;77;28518;-83
2022/05/30 17:08:25;;;;;;;3.35;1.72;;;;;;;;;;4532257;76;28528;-82
2022/05/30 17:14:28;;;;;;;4.30;1.95;;;;;;;;;;4521452;77;28581;-83
2022/05/30 17:20:35;;;;;;;2.90;2.05;;;;;;;;;;4504020;77;28461;-78
2022/05/30 17:33:00;;;;;;;4.05;2.00;;;;;;;;;;4531300;77;28491;-81
2022/05/30 17:39:04;;;;;;;2.77;1.70;;;;;;;;;;4567944;77;28543;-80
2022/05/30 17:45:06;;;;;;;3.33;2.00;;;;;;;;;;4524174;77;28508;-82
2022/05/30 17:51:37;;;;;;;2.45;1.95;;;;;;;;;;4574577;77;28559;-84
2022/05/30 17:57:38;;;;;;;2.02;1.80;;;;;;;;;;4440558;78;28482;-80
2022/05/30 18:03:40;;;;;;;2.90;1.95;;;;;;;;;;4413959;78;28516;-79
2022/05/30 18:09:51;;;;;;;4.15;2.12;;;;;;;;;;4441837;78;28491;-81
2022/05/30 18:16:19;;;;;;;2.47;1.80;;;;;;;;;;4445300;78;28544;-81
2022/05/30 18:22:48;;;;;;;3.25;2.00;;;;;;;;;;4384242;80;28583;-82
2022/05/30 18:28:51;;;;;;;3.17;1.98;;;;;;;;;;4385168;79;28529;-79
2022/05/30 18:35:22;;;;;;;5.25;2.33;;;;;;;;;;4428087;78;28523;-79
2022/05/30 18:41:37;;;;;;;2.45;1.95;;;;;;;;;;4422768;78;28450;-81
2022/05/30 18:47:42;;;;;;;3.45;1.82;;;;;;;;;;4435470;78;28560;-79
2022/05/30 18:53:44;;;;;;;5.53;2.08;;;;;;;;;;4424866;78;28578;-80
2022/05/30 18:59:52;;;;;;;4.22;2.33;;;;;;;;;;4370125;79;28458;-78
2022/05/30 19:05:53;;;;;;;3.22;2.02;;;;;;;;;;4450821;77;28526;-79
2022/05/30 19:12:02;;;;;;;3.52;2.60;;;;;;;;;;4533331;77;28492;-78
2022/05/30 19:18:06;;;;;;;6.33;2.45;;;;;;;;;;4548599;77;28478;-81
2022/05/30 19:24:08;;;;;;;3.37;2.17;;;;;;;;;;4541435;77;28521;-79
2022/05/30 19:30:15;;;;;;;2.92;2.15;;;;;;;;;;4546428;77;28534;-80
2022/05/30 19:36:18;;;;;;;3.55;2.30;;;;;;;;;;4559664;77;28484;-80
2022/05/30 19:42:19;;;;;;;3.52;2.30;;;;;;;;;;4563102;77;28483;-78
2022/05/30 19:48:22;;;;;;;4.40;2.42;;;;;;;;;;4551212;77;28583;-78
2022/05/30 19:54:24;;;;;;;5.97;2.70;;;;;;;;;;4517184;77;28570;-79
2022/05/30 20:00:26;;;;;;;5.58;3.10;;;;;;;;;;4547459;77;28494;-79
2022/05/30 20:06:27;;;;;;;4.25;2.60;;;;;;;;;;4528535;77;28526;-80
2022/05/30 20:12:29;;;;;;;4.78;3.08;;;;;;;;;;4538159;77;28514;-78
2022/05/30 20:18:30;;;;;;;7.80;3.25;;;;;;;;;;4541486;77;28509;-80
2022/05/30 20:24:32;;;;;;;2.77;2.45;;;;;;;;;;4557263;77;28496;-79
2022/05/30 20:30:33;;;;;;;5.87;2.90;;;;;;;;;;4538193;77;28518;-79
2022/05/30 20:36:36;;;;;;;4.03;2.70;;;;;;;;;;4540878;77;28484;-80
2022/05/30 20:48:57;;;;;;;7.22;4.47;;;;;;;;;;4559026;77;28530;-77
2022/05/30 20:54:58;;;;;;;8.78;3.83;;;;;;;;;;4532129;77;28526;-79
2022/05/30 21:01:02;;;;;;;5.67;3.30;;;;;;;;;;4543878;77;28550;-78
2022/05/30 21:07:04;;;;;;;5.10;3.17;;;;;;;;;;4532523;77;28554;-79
2022/05/30 21:19:22;;;;;;;7.65;3.60;;;;;;;;;;4560373;76;61414;-78
2022/05/30 21:25:26;;;;;;;4.75;3.08;;;;;;;;;;4478337;77;28522;-78
2022/05/30 21:31:31;;;;;;;4.22;3.00;;;;;;;;;;4478930;77;28551;-78
2022/05/30 21:37:32;;;;;;;5.10;3.60;;;;;;;;;;4466708;77;28506;-77
2022/05/30 21:43:33;;;;;;;7.03;4.15;;;;;;;;;;4478808;77;28537;-80
2022/05/30 21:49:35;;;;;;;7.03;4.45;;;;;;;;;;4492051;77;28537;-78
2022/05/30 21:55:36;;;;;;;5.95;4.03;;;;;;;;;;4544646;77;28579;-79
2022/05/30 22:01:38;;;;;;;6.95;4.33;;;;;;;;;;4497654;77;28552;-79
2022/05/30 22:07:39;;;;;;;7.42;4.12;;;;;;;;;;4480206;77;28545;-78
2022/05/30 22:13:43;;;;;;;7.37;3.58;;;;;;;;;;4495893;77;28569;-79
2022/05/30 22:19:44;;;;;;;5.97;3.05;;;;;;;;;;4482518;77;28558;-79
2022/05/30 22:25:49;;;;;;;6.22;4.12;;;;;;;;;;4476674;77;28541;-78
2022/05/30 22:31:51;;;;;;;6.55;4.15;;;;;;;;;;4482531;77;28577;-78
2022/05/30 22:37:54;;;;;;;7.90;4.45;;;;;;;;;;4478696;77;28545;-78
2022/05/30 22:43:55;;;;;;;8.93;4.33;;;;;;;;;;4476403;77;28517;-78
2022/05/30 22:49:56;;;;;;;7.40;3.90;;;;;;;;;;4453131;78;28494;-78
2022/05/30 22:55:59;;;;;;;7.40;4.10;;;;;;;;;;4460284;78;28519;-79
2022/05/30 23:02:00;;;;;;;5.87;3.52;;;;;;;;;;4408110;80;28535;-78
2022/05/30 23:08:02;;;;;;;7.30;4.50;;;;;;;;;;4348441;80;28554;-78
2022/05/30 23:14:07;;;;;;;7.58;4.42;;;;;;;;;;4332863;80;28617;-81
2022/05/30 23:20:12;;;;;;;8.00;4.90;;;;;;;;;;4318258;80;28562;-80
2022/05/30 23:26:15;;;;;;;8.23;5.22;;;;;;;;;;4363913;80;28520;-80
2022/05/30 23:32:16;;;;;;;8.55;5.70;;;;;;;;;;4356062;80;28551;-81
2022/05/30 23:38:17;;;;;;;11.68;6.20;;;;;;;;;;4324162;80;28519;-82
2022/05/30 23:44:34;;;;;;;9.83;6.05;;;;;;;;;;4356638;80;28465;-81
2022/05/30 23:50:36;;;;;;;9.68;6.28;;;;;;;;;;4386086;80;28518;-81
2022/05/30 23:56:38;;;;;;;9.80;5.10;;;;;;;;;;4376745;80;28956;-81
